createdAt,value
2023-05-23T00:00:38.658Z,23.58
2023-05-23T00:03:06.553Z,22.17
2023-05-23T00:05:34.442Z,15.30
2023-05-23T00:08:02.401Z,22.65
2023-05-23T00:10:30.167Z,16.77
2023-05-23T00:12:58.169Z,18.52
2023-05-23T00:15:27.429Z,18.00
2023-05-23T00:17:55.265Z,19.75
2023-05-23T00:20:23.206Z,19.65
2023-05-23T00:22:50.993Z,21.05
2023-05-23T00:25:21.996Z,17.38
2023-05-23T00:27:49.775Z,17.98
2023-05-23T00:30:17.786Z,19.50
2023-05-23T00:32:46.968Z,16.15
2023-05-23T00:35:14.752Z,16.77
2023-05-23T00:37:43.862Z,17.88
2023-05-23T00:40:12.671Z,17.73
2023-05-23T00:42:40.789Z,13.52
2023-05-23T00:45:09.412Z,14.07
2023-05-23T00:47:37.325Z,14.00
2023-05-23T00:50:08.450Z,17.60
2023-05-23T00:52:37.114Z,14.77
2023-05-23T00:55:06.101Z,14.70
2023-05-23T00:57:34.433Z,15.07
2023-05-23T01:00:02.490Z,11.25
2023-05-23T01:02:33.614Z,16.80
2023-05-23T01:05:02.484Z,12.48
2023-05-23T01:07:31.733Z,13.95
2023-05-23T01:09:59.812Z,17.40
2023-05-23T01:12:35.447Z,14.05
2023-05-23T01:15:08.758Z,11.53
2023-05-23T01:17:56.316Z,13.43
2023-05-23T01:20:29.838Z,15.80
2023-05-23T01:23:22.393Z,14.93
2023-05-23T01:26:05.186Z,13.20
2023-05-23T01:28:38.962Z,15.05
2023-05-23T01:31:11.288Z,15.50
2023-05-23T01:33:41.087Z,12.55
2023-05-23T01:36:10.058Z,13.77
2023-05-23T01:38:37.860Z,19.50
2023-05-23T01:41:05.679Z,19.40
2023-05-23T01:43:35.238Z,14.07
2023-05-23T01:46:04.593Z,12.40
2023-05-23T01:48:33.261Z,18.27
2023-05-23T01:51:01.195Z,19.88
2023-05-23T01:53:30.289Z,14.00
2023-05-23T01:55:58.605Z,18.52
2023-05-23T01:58:26.435Z,14.85
2023-05-23T02:00:55.699Z,16.17
2023-05-23T02:03:23.767Z,15.70
2023-05-23T02:05:51.878Z,17.70
2023-05-23T02:08:19.634Z,16.95
2023-05-23T02:10:47.473Z,17.05
2023-05-23T02:13:15.238Z,13.32
2023-05-23T02:15:43.075Z,18.10
2023-05-23T02:18:13.081Z,18.60
2023-05-23T02:20:41.213Z,18.70
2023-05-23T02:23:09.123Z,15.43
2023-05-23T02:25:37.048Z,17.35
2023-05-23T02:28:04.902Z,15.45
2023-05-23T02:30:32.703Z,16.80
2023-05-23T02:33:00.489Z,18.02
2023-05-23T02:35:29.621Z,16.75
2023-05-23T02:37:57.384Z,23.42
2023-05-23T02:40:25.143Z,22.23
2023-05-23T02:42:52.900Z,20.75
2023-05-23T02:45:20.777Z,17.85
2023-05-23T02:47:48.501Z,17.25
2023-05-23T02:50:16.657Z,22.92
2023-05-23T02:52:45.816Z,23.45
2023-05-23T02:55:13.596Z,28.60
2023-05-23T02:57:41.380Z,21.88
2023-05-23T03:00:12.022Z,21.30
2023-05-23T03:02:39.938Z,21.40
2023-05-23T03:05:08.738Z,18.42
2023-05-23T03:07:36.721Z,15.95
2023-05-23T03:10:06.868Z,22.50
2023-05-23T03:12:34.667Z,17.10
2023-05-23T03:15:02.390Z,19.00
2023-05-23T03:17:30.127Z,14.98
2023-05-23T03:19:57.920Z,18.65
2023-05-23T03:22:25.650Z,16.70
2023-05-23T03:24:53.416Z,12.88
2023-05-23T03:27:22.566Z,13.10
2023-05-23T03:29:50.282Z,14.18
2023-05-23T03:32:18.044Z,13.23
2023-05-23T03:34:46.134Z,13.80
2023-05-23T03:37:13.880Z,8.23
2023-05-23T03:39:41.618Z,13.13
2023-05-23T03:42:09.403Z,11.13
2023-05-23T03:44:38.647Z,9.55
2023-05-23T03:47:07.185Z,8.05
2023-05-23T03:49:35.080Z,8.60
2023-05-23T03:52:02.808Z,9.35
2023-05-23T03:54:30.559Z,9.57
2023-05-23T03:56:58.334Z,10.35
2023-05-23T03:59:26.066Z,12.85
2023-05-23T04:01:55.379Z,10.77
2023-05-23T04:04:25.120Z,7.55
2023-05-23T04:06:53.297Z,7.13
2023-05-23T04:09:21.058Z,7.05
2023-05-23T04:11:49.209Z,12.18
2023-05-23T04:14:17.421Z,9.73
2023-05-23T04:16:45.239Z,10.50
2023-05-23T04:19:14.388Z,8.23
2023-05-23T04:21:42.208Z,11.02
2023-05-23T04:24:09.948Z,7.82
2023-05-23T04:26:37.769Z,12.32
2023-05-23T04:29:06.310Z,7.63
2023-05-23T04:31:35.256Z,9.82
2023-05-23T04:34:03.839Z,8.73
2023-05-23T04:36:33.012Z,6.88
2023-05-23T04:39:00.751Z,9.75
2023-05-23T04:41:28.523Z,12.38
2023-05-23T04:43:58.511Z,9.55
2023-05-23T04:46:26.878Z,11.90
2023-05-23T04:48:55.045Z,9.75
2023-05-23T04:51:22.912Z,9.93
2023-05-23T04:53:52.851Z,11.32
2023-05-23T04:56:22.287Z,15.50
2023-05-23T04:58:50.190Z,10.43
2023-05-23T05:01:18.003Z,13.82
2023-05-23T05:03:45.863Z,16.63
2023-05-23T05:06:14.698Z,14.90
2023-05-23T05:08:42.488Z,18.23
2023-05-23T05:11:11.933Z,17.15
2023-05-23T05:13:39.671Z,14.70
2023-05-23T05:16:07.896Z,15.55
2023-05-23T05:18:36.516Z,23.50
2023-05-23T05:21:04.571Z,16.65
2023-05-23T05:23:33.329Z,23.45
2023-05-23T05:26:01.615Z,18.45
2023-05-23T05:28:30.715Z,20.05
2023-05-23T05:30:58.998Z,19.02
2023-05-23T05:33:28.426Z,20.13
2023-05-23T05:35:56.294Z,26.85
2023-05-23T05:38:24.040Z,19.77
2023-05-23T05:40:51.777Z,22.27
2023-05-23T05:43:19.607Z,22.80
2023-05-23T05:45:48.732Z,24.35
2023-05-23T05:48:16.622Z,27.70
2023-05-23T05:50:45.524Z,20.73
2023-05-23T05:53:13.660Z,22.67
2023-05-23T05:55:41.470Z,24.10
2023-05-23T05:58:09.199Z,23.95
2023-05-23T06:00:42.301Z,22.00
2023-05-23T06:03:12.602Z,24.63
2023-05-23T06:05:40.487Z,22.08
2023-05-23T06:08:08.495Z,25.67
2023-05-23T06:10:39.545Z,31.38
2023-05-23T06:13:07.591Z,18.48
2023-05-23T06:15:35.476Z,27.33
2023-05-23T06:18:03.248Z,27.80
2023-05-23T06:20:32.372Z,25.58
2023-05-23T06:23:00.309Z,17.60
2023-05-23T06:25:28.359Z,22.75
2023-05-23T06:27:56.138Z,21.85
2023-05-23T06:30:24.368Z,21.70
2023-05-23T06:32:52.197Z,18.05
2023-05-23T06:35:19.958Z,16.38
2023-05-23T06:37:49.107Z,15.18
2023-05-23T06:40:16.958Z,20.05
2023-05-23T06:42:44.792Z,22.63
2023-05-23T06:45:15.766Z,17.58
2023-05-23T06:47:45.670Z,16.02
2023-05-23T06:50:13.622Z,14.35
2023-05-23T06:52:42.747Z,13.60
2023-05-23T06:55:14.538Z,21.90
2023-05-23T06:57:42.341Z,10.23
2023-05-23T07:00:11.538Z,11.00
2023-05-23T07:02:39.389Z,10.55
2023-05-23T07:05:07.895Z,16.80
2023-05-23T07:07:35.705Z,10.95
2023-05-23T07:10:03.611Z,14.20
2023-05-23T07:12:34.757Z,9.73
2023-05-23T07:15:02.920Z,11.63
2023-05-23T07:17:30.875Z,12.63
2023-05-23T07:19:58.678Z,8.80
2023-05-23T07:22:26.893Z,14.50
2023-05-23T07:24:54.836Z,11.90
2023-05-23T07:27:22.717Z,12.35
2023-05-23T07:29:51.919Z,15.20
2023-05-23T07:32:19.764Z,8.48
2023-05-23T07:34:47.519Z,11.32
2023-05-23T07:37:15.282Z,13.52
2023-05-23T07:39:43.037Z,10.82
2023-05-23T07:42:10.851Z,17.92
2023-05-23T07:44:38.957Z,16.58
2023-05-23T07:47:08.122Z,12.73
2023-05-23T07:49:35.946Z,12.77
2023-05-23T07:52:03.803Z,11.98
2023-05-23T07:54:31.564Z,11.10
2023-05-23T07:56:59.371Z,9.80
2023-05-23T07:59:27.206Z,13.75
2023-05-23T08:01:55.020Z,11.13
2023-05-23T08:04:24.251Z,15.18
2023-05-23T08:07:00.792Z,20.30
2023-05-23T08:09:32.562Z,9.77
2023-05-23T08:12:00.375Z,10.02
2023-05-23T08:14:42.403Z,15.85
2023-05-23T08:17:16.746Z,12.63
2023-05-23T08:19:46.150Z,12.55
2023-05-23T08:22:13.981Z,16.48
2023-05-23T08:24:41.746Z,13.90
2023-05-23T08:27:09.590Z,14.18
2023-05-23T08:29:37.446Z,10.23
2023-05-23T08:32:05.694Z,11.65
2023-05-23T08:34:33.588Z,14.65
2023-05-23T08:37:02.722Z,13.43
2023-05-23T08:39:30.529Z,11.93
2023-05-23T08:41:58.353Z,8.07
2023-05-23T08:44:26.202Z,10.48
2023-05-23T08:46:55.008Z,9.75
2023-05-23T08:49:24.066Z,14.25
2023-05-23T08:51:56.733Z,11.52
2023-05-23T08:54:27.132Z,10.38
2023-05-23T08:56:54.903Z,10.70
2023-05-23T08:59:23.658Z,12.23
2023-05-23T09:01:53.235Z,7.40
2023-05-23T09:04:21.237Z,8.07
2023-05-23T09:06:49.079Z,9.40
2023-05-23T09:09:17.392Z,10.25
2023-05-23T09:11:47.572Z,8.57
2023-05-23T09:14:18.060Z,7.05
2023-05-23T09:16:49.277Z,10.68
2023-05-23T09:19:17.106Z,8.82
2023-05-23T09:21:45.378Z,9.18
2023-05-23T09:24:13.211Z,9.48
2023-05-23T09:26:41.045Z,10.25
2023-05-23T09:29:10.134Z,12.52
2023-05-23T09:31:37.941Z,8.25
2023-05-23T09:34:06.953Z,8.70
2023-05-23T09:36:36.485Z,12.27
2023-05-23T09:39:06.399Z,8.60
2023-05-23T09:41:35.580Z,9.63
2023-05-23T09:44:07.216Z,11.65
2023-05-23T09:46:38.048Z,11.35
2023-05-23T09:49:17.348Z,11.27
2023-05-23T09:51:45.655Z,6.68
2023-05-23T09:54:13.710Z,7.30
2023-05-23T09:56:43.717Z,12.02
2023-05-23T09:59:14.627Z,12.93
2023-05-23T10:01:48.896Z,14.80
2023-05-23T10:04:21.918Z,14.73
2023-05-23T10:06:53.280Z,16.90
2023-05-23T10:09:24.262Z,8.68
2023-05-23T10:12:31.541Z,11.55
2023-05-23T10:15:04.626Z,11.30
2023-05-23T10:17:41.050Z,8.55
2023-05-23T10:20:12.655Z,13.65
2023-05-23T10:22:41.749Z,7.88
2023-05-23T10:25:10.922Z,12.52
2023-05-23T10:27:39.385Z,9.15
2023-05-23T10:30:08.534Z,13.88
2023-05-23T10:32:40.548Z,9.43
2023-05-23T10:35:16.722Z,14.55
2023-05-23T10:37:51.090Z,17.13
2023-05-23T10:40:25.648Z,8.15
2023-05-23T10:43:01.306Z,8.75
2023-05-23T10:45:29.521Z,11.37
2023-05-23T10:48:01.515Z,12.88
2023-05-23T10:50:34.011Z,16.35
2023-05-23T10:53:03.191Z,14.30
2023-05-23T10:55:33.674Z,11.60
2023-05-23T10:58:11.879Z,10.63
2023-05-23T11:00:40.002Z,7.70
2023-05-23T11:03:11.618Z,20.05
2023-05-23T11:05:49.196Z,13.35
2023-05-23T11:08:17.886Z,12.43
2023-05-23T11:11:01.158Z,10.10
2023-05-23T11:13:56.297Z,12.63
2023-05-23T11:16:28.960Z,12.02
2023-05-23T11:19:28.041Z,13.30
2023-05-23T11:22:01.154Z,10.95
2023-05-23T11:24:52.248Z,9.20
2023-05-23T11:27:27.468Z,12.00
2023-05-23T11:30:00.335Z,14.95
2023-05-23T11:32:30.754Z,11.18
2023-05-23T11:35:02.499Z,12.32
2023-05-23T11:37:31.015Z,16.55
2023-05-23T11:39:59.283Z,17.70
2023-05-23T11:42:27.152Z,15.25
2023-05-23T11:44:55.338Z,13.57
2023-05-23T11:47:23.156Z,10.23
2023-05-23T11:49:50.923Z,14.45
2023-05-23T11:52:20.089Z,10.07
2023-05-23T11:54:47.889Z,9.65
2023-05-23T11:57:15.656Z,11.50
2023-05-23T11:59:43.672Z,13.43
2023-05-23T12:02:11.586Z,9.73
2023-05-23T12:04:39.585Z,12.90
2023-05-23T12:07:08.387Z,16.90
2023-05-23T12:09:44.522Z,20.35
2023-05-23T12:12:13.641Z,10.82
2023-05-23T12:14:44.837Z,13.57
2023-05-23T12:17:13.782Z,14.65
2023-05-23T12:19:46.691Z,10.85
2023-05-23T12:22:14.477Z,10.52
2023-05-23T12:24:48.150Z,9.23
2023-05-23T12:27:18.590Z,12.45
2023-05-23T12:29:52.592Z,12.95
2023-05-23T12:32:20.506Z,11.05
2023-05-23T12:34:50.329Z,9.98
2023-05-23T12:37:20.304Z,8.82
2023-05-23T12:39:49.733Z,9.07
2023-05-23T12:42:17.565Z,10.82
2023-05-23T12:44:46.178Z,8.43
2023-05-23T12:47:15.083Z,9.13
2023-05-23T12:49:44.809Z,7.65
2023-05-23T12:52:12.678Z,9.85
2023-05-23T12:54:40.556Z,10.02
2023-05-23T12:57:09.832Z,11.40
2023-05-23T12:59:37.558Z,9.68
2023-05-23T13:02:05.419Z,13.13
2023-05-23T13:04:33.262Z,11.27
2023-05-23T13:07:01.133Z,10.90
2023-05-23T13:09:28.862Z,13.73
2023-05-23T13:11:56.832Z,11.15
2023-05-23T13:14:25.980Z,10.80
2023-05-23T13:16:53.813Z,7.78
2023-05-23T13:19:21.676Z,9.68
2023-05-23T13:21:50.086Z,9.57
2023-05-23T13:24:18.075Z,7.28
2023-05-23T13:26:45.901Z,9.20
2023-05-23T13:29:13.831Z,10.23
2023-05-23T13:31:43.043Z,11.93
2023-05-23T13:34:11.002Z,7.22
2023-05-23T13:36:38.826Z,8.70
2023-05-23T13:39:07.125Z,9.65
2023-05-23T13:41:34.928Z,12.90
2023-05-23T13:44:02.710Z,9.93
2023-05-23T13:46:30.820Z,15.80
2023-05-23T13:49:00.041Z,8.32
2023-05-23T13:51:27.852Z,11.82
2023-05-23T13:53:55.694Z,13.27
2023-05-23T13:56:24.402Z,11.60
2023-05-23T13:58:52.185Z,11.30
2023-05-23T14:01:20.024Z,9.18
2023-05-23T14:03:47.852Z,9.75
2023-05-23T14:06:17.023Z,10.98
2023-05-23T14:08:44.810Z,11.00
2023-05-23T14:11:12.561Z,10.40
2023-05-23T14:13:40.376Z,11.38
2023-05-23T14:16:08.258Z,13.63
2023-05-23T14:18:36.026Z,9.35
2023-05-23T14:21:03.820Z,8.75
2023-05-23T14:23:34.068Z,12.80
2023-05-23T14:26:01.899Z,13.68
2023-05-23T14:28:29.709Z,11.32
2023-05-23T14:30:59.083Z,13.10
2023-05-23T14:33:27.107Z,9.48
2023-05-23T14:35:54.922Z,9.75
2023-05-23T14:38:22.661Z,13.82
2023-05-23T14:40:51.806Z,11.73
2023-05-23T14:43:19.601Z,11.48
2023-05-23T14:45:47.447Z,9.90
2023-05-23T14:48:15.489Z,9.40
2023-05-23T14:50:43.459Z,18.35
2023-05-23T14:53:11.232Z,14.15
2023-05-23T14:55:39.119Z,12.25
2023-05-23T14:58:08.367Z,10.63
2023-05-23T15:00:36.073Z,8.98
2023-05-23T15:03:04.789Z,11.80
2023-05-23T15:05:32.795Z,8.95
2023-05-23T15:08:00.562Z,8.30
2023-05-23T15:10:28.307Z,9.75
2023-05-23T15:12:56.213Z,10.88
2023-05-23T15:15:27.085Z,8.77
2023-05-23T15:17:54.896Z,12.30
2023-05-23T15:20:22.702Z,10.60
2023-05-23T15:22:50.429Z,9.05
2023-05-23T15:25:27.002Z,13.02
2023-05-23T15:28:01.862Z,9.32
2023-05-23T15:30:31.130Z,13.90
2023-05-23T15:33:01.355Z,12.07
2023-05-23T15:35:29.640Z,10.02
2023-05-23T15:37:57.463Z,8.25
2023-05-23T15:40:25.188Z,10.48
2023-05-23T15:42:52.986Z,9.35
2023-05-23T15:45:20.854Z,13.27
2023-05-23T15:47:50.042Z,8.68
2023-05-23T15:50:18.865Z,9.55
2023-05-23T15:52:46.646Z,10.98
2023-05-23T15:55:14.449Z,10.60
2023-05-23T15:57:42.189Z,14.57
2023-05-23T16:00:11.049Z,10.98
2023-05-23T16:02:39.074Z,14.15
2023-05-23T16:05:09.124Z,15.95
2023-05-23T16:07:36.924Z,12.75
2023-05-23T16:10:05.082Z,10.20
2023-05-23T16:12:32.830Z,12.02
2023-05-23T16:15:02.502Z,12.95
2023-05-23T16:17:30.286Z,10.05
2023-05-23T16:19:58.071Z,8.57
2023-05-23T16:22:27.187Z,10.50
2023-05-23T16:24:55.613Z,16.65
2023-05-23T16:27:24.228Z,9.27
2023-05-23T16:29:51.997Z,8.98
2023-05-23T16:32:19.754Z,7.63
2023-05-23T16:34:52.839Z,9.60
2023-05-23T16:37:21.971Z,7.72
2023-05-23T16:39:51.124Z,9.65
2023-05-23T16:42:18.967Z,11.73
2023-05-23T16:44:46.835Z,12.02
2023-05-23T16:47:14.636Z,10.68
2023-05-23T16:49:42.452Z,12.18
2023-05-23T16:52:10.245Z,11.68
2023-05-23T16:54:38.058Z,12.25
2023-05-23T16:57:07.722Z,8.68
2023-05-23T16:59:35.564Z,9.88
2023-05-23T17:02:03.486Z,10.13
2023-05-23T17:04:31.312Z,14.32
2023-05-23T17:06:59.037Z,7.43
2023-05-23T17:09:26.789Z,11.85
2023-05-23T17:11:54.658Z,7.95
2023-05-23T17:14:23.787Z,11.55
2023-05-23T17:16:51.566Z,8.73
2023-05-23T17:19:19.378Z,12.68
2023-05-23T17:21:47.205Z,8.70
2023-05-23T17:24:15.065Z,9.27
2023-05-23T17:26:42.883Z,12.43
2023-05-23T17:29:10.847Z,9.23
2023-05-23T17:31:40.096Z,8.10
2023-05-23T17:34:07.952Z,10.52
2023-05-23T17:36:36.033Z,8.18
2023-05-23T17:39:03.855Z,9.55
2023-05-23T17:41:31.809Z,11.25
2023-05-23T17:43:59.614Z,9.75
2023-05-23T17:46:27.411Z,12.57
2023-05-23T17:48:56.590Z,9.85
2023-05-23T17:51:24.559Z,10.35
2023-05-23T17:53:53.805Z,12.15
2023-05-23T17:56:23.280Z,14.55
2023-05-23T17:58:51.369Z,9.77
2023-05-23T18:01:19.697Z,10.68
2023-05-23T18:03:48.956Z,9.38
2023-05-23T18:06:18.329Z,7.35
2023-05-23T18:08:46.067Z,11.50
2023-05-23T18:11:14.114Z,9.02
2023-05-23T18:13:41.846Z,6.82
2023-05-23T18:16:09.631Z,5.63
2023-05-23T18:18:37.346Z,7.18
2023-05-23T18:21:06.188Z,11.00
2023-05-23T18:23:35.584Z,8.05
2023-05-23T18:26:03.644Z,8.73
2023-05-23T18:28:31.475Z,12.73
2023-05-23T18:30:59.231Z,8.48
2023-05-23T18:33:27.699Z,8.45
2023-05-23T18:35:55.648Z,8.07
2023-05-23T18:38:23.400Z,10.93
2023-05-23T18:40:52.738Z,7.57
2023-05-23T18:43:21.049Z,9.68
2023-05-23T18:45:48.801Z,6.40
2023-05-23T18:48:16.727Z,7.80
2023-05-23T18:50:44.683Z,5.32
2023-05-23T18:53:12.634Z,13.32
2023-05-23T18:55:40.365Z,9.30
2023-05-23T18:58:09.463Z,11.52
2023-05-23T19:00:37.229Z,9.18
2023-05-23T19:03:05.457Z,7.43
2023-05-23T19:05:33.348Z,6.90
2023-05-23T19:08:01.120Z,21.88
2023-05-23T19:10:28.904Z,12.55
2023-05-23T19:12:56.678Z,14.13
2023-05-23T19:15:25.845Z,9.20
2023-05-23T19:17:53.666Z,9.93
2023-05-23T19:20:22.046Z,8.07
2023-05-23T19:22:51.416Z,10.88
2023-05-23T19:25:20.765Z,7.20
2023-05-23T19:27:48.552Z,11.55
2023-05-23T19:30:16.715Z,15.38
2023-05-23T19:32:45.923Z,11.20
2023-05-23T19:35:16.536Z,13.07
2023-05-23T19:37:45.179Z,8.32
2023-05-23T19:40:13.729Z,13.23
2023-05-23T19:42:41.515Z,12.68
2023-05-23T19:45:09.972Z,7.32
2023-05-23T19:47:37.933Z,12.02
2023-05-23T19:50:08.258Z,12.50
2023-05-23T19:52:36.034Z,11.95
2023-05-23T19:55:04.142Z,8.10
2023-05-23T19:57:32.192Z,9.07
2023-05-23T20:00:00.014Z,11.65
2023-05-23T20:02:27.876Z,7.47
2023-05-23T20:04:55.796Z,15.77
2023-05-23T20:07:24.954Z,9.75
2023-05-23T20:09:52.761Z,11.02
2023-05-23T20:12:20.510Z,10.48
2023-05-23T20:14:48.315Z,10.32
2023-05-23T20:17:16.065Z,9.32
2023-05-23T20:19:43.887Z,9.20
2023-05-23T20:22:11.619Z,10.70
2023-05-23T20:24:40.800Z,12.20
2023-05-23T20:27:08.719Z,10.65
2023-05-23T20:29:36.532Z,11.68
2023-05-23T20:32:04.342Z,7.47
2023-05-23T20:34:32.461Z,11.65
2023-05-23T20:37:01.501Z,9.90
2023-05-23T20:39:29.649Z,10.32
2023-05-23T20:41:59.702Z,9.35
2023-05-23T20:44:27.510Z,13.27
2023-05-23T20:46:57.026Z,6.10
2023-05-23T20:49:24.930Z,13.95
2023-05-23T20:51:52.785Z,11.90
2023-05-23T20:54:21.035Z,9.93
2023-05-23T20:56:48.796Z,15.48
2023-05-23T20:59:18.006Z,8.77
2023-05-23T21:01:45.864Z,10.45
2023-05-23T21:04:13.978Z,11.27
2023-05-23T21:06:41.720Z,13.82
2023-05-23T21:09:09.860Z,11.80
2023-05-23T21:11:37.624Z,6.57
2023-05-23T21:14:05.424Z,15.13
2023-05-23T21:16:34.603Z,7.60
2023-05-23T21:19:02.397Z,15.95
2023-05-23T21:21:30.219Z,9.27
2023-05-23T21:23:57.993Z,14.57
2023-05-23T21:26:25.713Z,10.40
2023-05-23T21:28:53.460Z,8.80
2023-05-23T21:31:33.158Z,6.50
2023-05-23T21:34:22.425Z,10.32
2023-05-23T21:36:51.926Z,8.45
2023-05-23T21:39:19.895Z,12.00
2023-05-23T21:41:47.725Z,6.97
2023-05-23T21:44:17.610Z,8.13
2023-05-23T21:46:45.786Z,6.60
2023-05-23T21:49:15.156Z,6.82
2023-05-23T21:51:44.088Z,8.65
2023-05-23T21:54:11.877Z,9.25
2023-05-23T21:56:39.594Z,11.00
2023-05-23T21:59:07.708Z,7.80
2023-05-23T22:01:36.036Z,9.65
2023-05-23T22:04:03.870Z,8.65
2023-05-23T22:06:33.540Z,8.05
2023-05-23T22:09:01.692Z,9.02
2023-05-23T22:11:33.991Z,11.75
2023-05-23T22:14:02.266Z,9.20
2023-05-23T22:16:32.838Z,9.07
2023-05-23T22:19:02.114Z,7.10
2023-05-23T22:21:30.154Z,6.32
2023-05-23T22:23:59.657Z,8.98
2023-05-23T22:26:28.120Z,13.52
2023-05-23T22:28:56.493Z,9.57
2023-05-23T22:31:24.948Z,9.18
2023-05-23T22:33:52.887Z,7.97
2023-05-23T22:36:21.984Z,12.27
2023-05-23T22:38:50.045Z,14.32
2023-05-23T22:41:19.411Z,9.73
2023-05-23T22:43:47.485Z,12.80
2023-05-23T22:46:15.364Z,12.50
2023-05-23T22:48:43.316Z,8.80
2023-05-23T22:51:14.843Z,13.05
2023-05-23T22:53:43.274Z,9.32
2023-05-23T22:56:11.074Z,14.63
2023-05-23T22:58:40.190Z,12.77
2023-05-23T23:01:08.018Z,9.80
2023-05-23T23:03:36.022Z,8.63
2023-05-23T23:06:06.168Z,11.77
2023-05-23T23:08:34.257Z,10.05
2023-05-23T23:11:02.064Z,9.20
2023-05-23T23:13:29.890Z,9.65
2023-05-23T23:15:59.669Z,11.50
2023-05-23T23:18:27.858Z,12.23
2023-05-23T23:20:55.593Z,7.68
2023-05-23T23:23:23.440Z,11.85
2023-05-23T23:25:52.193Z,8.00
2023-05-23T23:28:20.751Z,14.73
2023-05-23T23:30:48.675Z,10.55
2023-05-23T23:33:17.835Z,11.80
2023-05-23T23:35:48.592Z,8.88
2023-05-23T23:38:16.611Z,10.07
2023-05-23T23:40:45.686Z,13.13
2023-05-23T23:43:13.934Z,11.38
2023-05-23T23:45:41.731Z,10.43
2023-05-23T23:48:09.614Z,14.82
2023-05-23T23:50:38.869Z,14.20
2023-05-23T23:53:06.581Z,17.65
2023-05-23T23:55:34.433Z,11.88
2023-05-23T23:58:02.174Z,12.68
